sensor_id;sensor_type;location;lat;lon;timestamp;P1;durP1;ratioP1;P2;durP2;ratioP2
33022;SDS011;19390;51.460;5.710;2023-03-23T00:00:46;7.43;;;4.03;;
33022;SDS011;19390;51.460;5.710;2023-03-23T00:03:12;4.75;;;3.08;;
33022;SDS011;19390;51.460;5.710;2023-03-23T00:05:38;6.85;;;3.35;;
33022;SDS011;19390;51.460;5.710;2023-03-23T00:08:06;5.72;;;3.17;;
33022;SDS011;19390;51.460;5.710;2023-03-23T00:10:34;6.82;;;3.40;;
33022;SDS011;19390;51.460;5.710;2023-03-23T00:13:00;6.10;;;3.45;;
33022;SDS011;19390;51.460;5.710;2023-03-23T00:15:29;6.97;;;3.35;;
33022;SDS011;19390;51.460;5.710;2023-03-23T00:18:01;4.72;;;2.88;;
33022;SDS011;19390;51.460;5.710;2023-03-23T00:20:29;6.00;;;3.20;;
33022;SDS011;19390;51.460;5.710;2023-03-23T00:23:02;6.28;;;3.53;;
33022;SDS011;19390;51.460;5.710;2023-03-23T00:25:29;5.72;;;3.13;;
33022;SDS011;19390;51.460;5.710;2023-03-23T00:27:54;5.55;;;3.60;;
33022;SDS011;19390;51.460;5.710;2023-03-23T00:30:21;5.13;;;2.75;;
33022;SDS011;19390;51.460;5.710;2023-03-23T00:32:47;5.10;;;3.30;;
33022;SDS011;19390;51.460;5.710;2023-03-23T00:35:13;4.28;;;3.05;;
33022;SDS011;19390;51.460;5.710;2023-03-23T00:37:39;4.40;;;2.90;;
33022;SDS011;19390;51.460;5.710;2023-03-23T00:40:05;7.20;;;3.70;;
33022;SDS011;19390;51.460;5.710;2023-03-23T00:42:34;4.95;;;2.90;;
33022;SDS011;19390;51.460;5.710;2023-03-23T00:45:02;4.45;;;3.10;;
33022;SDS011;19390;51.460;5.710;2023-03-23T00:47:35;4.30;;;2.83;;
33022;SDS011;19390;51.460;5.710;2023-03-23T00:50:03;8.02;;;3.50;;
33022;SDS011;19390;51.460;5.710;2023-03-23T00:52:30;5.78;;;3.40;;
33022;SDS011;19390;51.460;5.710;2023-03-23T00:54:56;5.63;;;2.70;;
33022;SDS011;19390;51.460;5.710;2023-03-23T00:57:22;5.30;;;3.17;;
33022;SDS011;19390;51.460;5.710;2023-03-23T00:59:49;4.03;;;2.80;;
33022;SDS011;19390;51.460;5.710;2023-03-23T01:02:15;4.38;;;2.75;;
33022;SDS011;19390;51.460;5.710;2023-03-23T01:04:41;10.63;;;3.00;;
33022;SDS011;19390;51.460;5.710;2023-03-23T01:07:09;6.63;;;3.20;;
33022;SDS011;19390;51.460;5.710;2023-03-23T01:09:39;5.47;;;3.33;;
33022;SDS011;19390;51.460;5.710;2023-03-23T01:12:05;7.00;;;3.47;;
33022;SDS011;19390;51.460;5.710;2023-03-23T01:14:31;4.25;;;2.63;;
33022;SDS011;19390;51.460;5.710;2023-03-23T01:16:56;7.43;;;2.88;;
33022;SDS011;19390;51.460;5.710;2023-03-23T01:19:22;5.50;;;3.00;;
33022;SDS011;19390;51.460;5.710;2023-03-23T01:21:48;6.50;;;3.28;;
33022;SDS011;19390;51.460;5.710;2023-03-23T01:24:13;5.82;;;3.58;;
33022;SDS011;19390;51.460;5.710;2023-03-23T01:26:39;5.43;;;3.15;;
33022;SDS011;19390;51.460;5.710;2023-03-23T01:29:05;6.70;;;4.07;;
33022;SDS011;19390;51.460;5.710;2023-03-23T01:31:30;6.72;;;3.47;;
33022;SDS011;19390;51.460;5.710;2023-03-23T01:33:56;4.82;;;3.13;;
33022;SDS011;19390;51.460;5.710;2023-03-23T01:36:23;4.72;;;3.55;;
33022;SDS011;19390;51.460;5.710;2023-03-23T01:38:53;4.95;;;3.40;;
33022;SDS011;19390;51.460;5.710;2023-03-23T01:41:20;6.50;;;3.28;;
33022;SDS011;19390;51.460;5.710;2023-03-23T01:43:57;7.03;;;3.78;;
33022;SDS011;19390;51.460;5.710;2023-03-23T01:46:26;5.05;;;3.42;;
33022;SDS011;19390;51.460;5.710;2023-03-23T01:48:56;5.43;;;3.45;;
33022;SDS011;19390;51.460;5.710;2023-03-23T01:51:25;5.05;;;3.40;;
33022;SDS011;19390;51.460;5.710;2023-03-23T01:53:54;7.35;;;3.83;;
33022;SDS011;19390;51.460;5.710;2023-03-23T01:56:22;7.10;;;3.50;;
33022;SDS011;19390;51.460;5.710;2023-03-23T01:58:50;8.95;;;4.15;;
33022;SDS011;19390;51.460;5.710;2023-03-23T02:01:17;8.27;;;4.10;;
33022;SDS011;19390;51.460;5.710;2023-03-23T02:03:46;5.18;;;3.78;;
33022;SDS011;19390;51.460;5.710;2023-03-23T02:06:13;4.75;;;3.65;;
33022;SDS011;19390;51.460;5.710;2023-03-23T02:08:40;3.90;;;3.50;;
33022;SDS011;19390;51.460;5.710;2023-03-23T02:11:18;6.22;;;3.75;;
33022;SDS011;19390;51.460;5.710;2023-03-23T02:13:46;4.53;;;3.15;;
33022;SDS011;19390;51.460;5.710;2023-03-23T02:19:15;6.38;;;3.92;;
33022;SDS011;19390;51.460;5.710;2023-03-23T02:26:59;5.30;;;3.50;;
33022;SDS011;19390;51.460;5.710;2023-03-23T02:34:51;4.18;;;3.30;;
33022;SDS011;19390;51.460;5.710;2023-03-23T02:37:26;6.00;;;3.80;;
33022;SDS011;19390;51.460;5.710;2023-03-23T02:39:58;5.35;;;3.15;;
33022;SDS011;19390;51.460;5.710;2023-03-23T02:42:34;6.00;;;3.65;;
33022;SDS011;19390;51.460;5.710;2023-03-23T02:45:05;5.50;;;3.40;;
33022;SDS011;19390;51.460;5.710;2023-03-23T02:47:34;6.35;;;3.40;;
33022;SDS011;19390;51.460;5.710;2023-03-23T02:50:02;4.03;;;3.50;;
33022;SDS011;19390;51.460;5.710;2023-03-23T02:52:31;6.35;;;3.72;;
33022;SDS011;19390;51.460;5.710;2023-03-23T02:54:59;7.10;;;3.90;;
33022;SDS011;19390;51.460;5.710;2023-03-23T02:57:26;7.32;;;4.22;;
33022;SDS011;19390;51.460;5.710;2023-03-23T02:59:53;5.82;;;3.63;;
33022;SDS011;19390;51.460;5.710;2023-03-23T03:02:21;5.22;;;3.30;;
33022;SDS011;19390;51.460;5.710;2023-03-23T03:05:13;7.40;;;3.95;;
33022;SDS011;19390;51.460;5.710;2023-03-23T03:07:36;4.95;;;3.60;;
33022;SDS011;19390;51.460;5.710;2023-03-23T03:10:31;4.70;;;3.80;;
33022;SDS011;19390;51.460;5.710;2023-03-23T03:13:08;5.85;;;3.88;;
33022;SDS011;19390;51.460;5.710;2023-03-23T03:15:42;5.57;;;4.13;;
33022;SDS011;19390;51.460;5.710;2023-03-23T03:20:47;5.20;;;3.78;;
33022;SDS011;19390;51.460;5.710;2023-03-23T03:23:16;5.55;;;3.90;;
33022;SDS011;19390;51.460;5.710;2023-03-23T03:25:44;6.22;;;4.22;;
33022;SDS011;19390;51.460;5.710;2023-03-23T03:28:15;6.53;;;3.60;;
33022;SDS011;19390;51.460;5.710;2023-03-23T03:30:42;6.18;;;3.65;;
33022;SDS011;19390;51.460;5.710;2023-03-23T03:33:10;6.45;;;4.22;;
33022;SDS011;19390;51.460;5.710;2023-03-23T03:35:37;7.10;;;4.07;;
33022;SDS011;19390;51.460;5.710;2023-03-23T03:38:09;5.30;;;3.80;;
33022;SDS011;19390;51.460;5.710;2023-03-23T03:40:35;5.53;;;3.72;;
33022;SDS011;19390;51.460;5.710;2023-03-23T03:43:01;6.45;;;3.70;;
33022;SDS011;19390;51.460;5.710;2023-03-23T03:45:27;4.93;;;3.65;;
33022;SDS011;19390;51.460;5.710;2023-03-23T03:47:53;5.50;;;3.45;;
33022;SDS011;19390;51.460;5.710;2023-03-23T03:50:18;5.13;;;3.47;;
33022;SDS011;19390;51.460;5.710;2023-03-23T03:52:44;5.60;;;3.20;;
33022;SDS011;19390;51.460;5.710;2023-03-23T03:55:10;6.05;;;3.65;;
33022;SDS011;19390;51.460;5.710;2023-03-23T03:57:36;7.43;;;3.58;;
33022;SDS011;19390;51.460;5.710;2023-03-23T04:00:03;5.00;;;3.05;;
33022;SDS011;19390;51.460;5.710;2023-03-23T04:02:40;5.90;;;3.40;;
33022;SDS011;19390;51.460;5.710;2023-03-23T04:05:07;5.10;;;2.60;;
33022;SDS011;19390;51.460;5.710;2023-03-23T04:07:34;7.32;;;3.60;;
33022;SDS011;19390;51.460;5.710;2023-03-23T04:10:02;7.43;;;3.00;;
33022;SDS011;19390;51.460;5.710;2023-03-23T04:12:29;4.30;;;2.78;;
33022;SDS011;19390;51.460;5.710;2023-03-23T04:14:54;4.43;;;2.72;;
33022;SDS011;19390;51.460;5.710;2023-03-23T04:17:20;8.00;;;2.88;;
33022;SDS011;19390;51.460;5.710;2023-03-23T04:19:46;6.25;;;3.00;;
33022;SDS011;19390;51.460;5.710;2023-03-23T04:22:12;7.07;;;2.90;;
33022;SDS011;19390;51.460;5.710;2023-03-23T04:24:38;5.25;;;2.85;;
33022;SDS011;19390;51.460;5.710;2023-03-23T04:27:03;9.48;;;2.95;;
33022;SDS011;19390;51.460;5.710;2023-03-23T04:29:30;8.52;;;2.20;;
33022;SDS011;19390;51.460;5.710;2023-03-23T04:31:55;6.60;;;2.60;;
33022;SDS011;19390;51.460;5.710;2023-03-23T04:34:21;5.45;;;2.25;;
33022;SDS011;19390;51.460;5.710;2023-03-23T04:36:48;4.65;;;2.05;;
33022;SDS011;19390;51.460;5.710;2023-03-23T04:39:13;5.63;;;2.33;;
33022;SDS011;19390;51.460;5.710;2023-03-23T04:41:40;5.80;;;2.13;;
33022;SDS011;19390;51.460;5.710;2023-03-23T04:44:06;6.95;;;3.00;;
33022;SDS011;19390;51.460;5.710;2023-03-23T04:46:32;8.45;;;2.05;;
33022;SDS011;19390;51.460;5.710;2023-03-23T04:48:58;5.43;;;2.10;;
33022;SDS011;19390;51.460;5.710;2023-03-23T04:51:27;6.00;;;2.17;;
33022;SDS011;19390;51.460;5.710;2023-03-23T04:53:54;7.68;;;2.10;;
33022;SDS011;19390;51.460;5.710;2023-03-23T04:56:20;5.85;;;2.40;;
33022;SDS011;19390;51.460;5.710;2023-03-23T04:58:46;6.63;;;2.40;;
33022;SDS011;19390;51.460;5.710;2023-03-23T05:01:11;5.82;;;2.33;;
33022;SDS011;19390;51.460;5.710;2023-03-23T05:03:42;5.13;;;2.28;;
33022;SDS011;19390;51.460;5.710;2023-03-23T05:06:08;7.85;;;2.15;;
33022;SDS011;19390;51.460;5.710;2023-03-23T05:08:34;6.70;;;1.98;;
33022;SDS011;19390;51.460;5.710;2023-03-23T05:11:03;5.97;;;2.17;;
33022;SDS011;19390;51.460;5.710;2023-03-23T05:13:30;5.80;;;1.90;;
33022;SDS011;19390;51.460;5.710;2023-03-23T05:15:56;7.75;;;2.30;;
33022;SDS011;19390;51.460;5.710;2023-03-23T05:18:22;6.32;;;2.33;;
33022;SDS011;19390;51.460;5.710;2023-03-23T05:20:48;5.03;;;2.58;;
33022;SDS011;19390;51.460;5.710;2023-03-23T05:23:14;5.78;;;1.90;;
33022;SDS011;19390;51.460;5.710;2023-03-23T05:25:39;8.88;;;2.42;;
33022;SDS011;19390;51.460;5.710;2023-03-23T05:28:06;8.48;;;2.60;;
33022;SDS011;19390;51.460;5.710;2023-03-23T05:30:33;6.03;;;2.58;;
33022;SDS011;19390;51.460;5.710;2023-03-23T05:32:59;7.85;;;2.67;;
33022;SDS011;19390;51.460;5.710;2023-03-23T05:35:25;5.88;;;2.13;;
33022;SDS011;19390;51.460;5.710;2023-03-23T05:37:52;6.47;;;2.35;;
33022;SDS011;19390;51.460;5.710;2023-03-23T05:40:18;6.90;;;2.28;;
33022;SDS011;19390;51.460;5.710;2023-03-23T05:42:45;7.68;;;2.40;;
33022;SDS011;19390;51.460;5.710;2023-03-23T05:45:12;8.10;;;2.70;;
33022;SDS011;19390;51.460;5.710;2023-03-23T05:47:38;6.65;;;2.38;;
33022;SDS011;19390;51.460;5.710;2023-03-23T05:50:05;8.35;;;2.90;;
33022;SDS011;19390;51.460;5.710;2023-03-23T05:52:34;8.15;;;2.70;;
33022;SDS011;19390;51.460;5.710;2023-03-23T05:55:00;5.15;;;2.67;;
33022;SDS011;19390;51.460;5.710;2023-03-23T05:57:26;7.93;;;2.78;;
33022;SDS011;19390;51.460;5.710;2023-03-23T05:59:52;7.43;;;2.78;;
33022;SDS011;19390;51.460;5.710;2023-03-23T06:02:18;5.82;;;2.33;;
33022;SDS011;19390;51.460;5.710;2023-03-23T06:04:43;9.13;;;2.63;;
33022;SDS011;19390;51.460;5.710;2023-03-23T06:07:09;8.30;;;2.50;;
33022;SDS011;19390;51.460;5.710;2023-03-23T06:09:39;8.38;;;2.80;;
33022;SDS011;19390;51.460;5.710;2023-03-23T06:12:06;7.63;;;2.50;;
33022;SDS011;19390;51.460;5.710;2023-03-23T06:14:32;9.30;;;2.40;;
33022;SDS011;19390;51.460;5.710;2023-03-23T06:16:58;9.40;;;2.92;;
33022;SDS011;19390;51.460;5.710;2023-03-23T06:19:24;12.02;;;2.95;;
33022;SDS011;19390;51.460;5.710;2023-03-23T06:21:51;7.22;;;2.17;;
33022;SDS011;19390;51.460;5.710;2023-03-23T06:24:19;8.18;;;2.25;;
33022;SDS011;19390;51.460;5.710;2023-03-23T06:26:44;12.13;;;2.78;;
33022;SDS011;19390;51.460;5.710;2023-03-23T06:29:10;12.50;;;2.72;;
33022;SDS011;19390;51.460;5.710;2023-03-23T06:31:56;6.63;;;2.40;;
33022;SDS011;19390;51.460;5.710;2023-03-23T06:34:25;8.82;;;2.33;;
33022;SDS011;19390;51.460;5.710;2023-03-23T06:36:51;11.48;;;2.20;;
33022;SDS011;19390;51.460;5.710;2023-03-23T06:39:18;6.50;;;1.77;;
33022;SDS011;19390;51.460;5.710;2023-03-23T06:41:44;9.73;;;1.90;;
33022;SDS011;19390;51.460;5.710;2023-03-23T06:44:09;9.90;;;2.20;;
33022;SDS011;19390;51.460;5.710;2023-03-23T06:46:38;8.55;;;1.85;;
33022;SDS011;19390;51.460;5.710;2023-03-23T06:49:04;11.68;;;2.38;;
33022;SDS011;19390;51.460;5.710;2023-03-23T06:51:30;4.93;;;1.70;;
33022;SDS011;19390;51.460;5.710;2023-03-23T06:53:56;6.07;;;1.70;;
33022;SDS011;19390;51.460;5.710;2023-03-23T06:56:22;7.13;;;1.67;;
33022;SDS011;19390;51.460;5.710;2023-03-23T06:58:48;8.88;;;1.95;;
33022;SDS011;19390;51.460;5.710;2023-03-23T07:01:14;6.20;;;1.60;;
33022;SDS011;19390;51.460;5.710;2023-03-23T07:03:41;8.32;;;1.58;;
33022;SDS011;19390;51.460;5.710;2023-03-23T07:06:07;6.68;;;2.00;;
33022;SDS011;19390;51.460;5.710;2023-03-23T07:08:34;6.35;;;2.08;;
33022;SDS011;19390;51.460;5.710;2023-03-23T07:11:00;7.55;;;1.80;;
33022;SDS011;19390;51.460;5.710;2023-03-23T07:13:25;6.13;;;2.08;;
33022;SDS011;19390;51.460;5.710;2023-03-23T07:15:51;7.68;;;2.25;;
33022;SDS011;19390;51.460;5.710;2023-03-23T07:18:17;4.53;;;1.70;;
33022;SDS011;19390;51.460;5.710;2023-03-23T07:20:46;4.93;;;1.67;;
33022;SDS011;19390;51.460;5.710;2023-03-23T07:23:13;7.47;;;1.75;;
33022;SDS011;19390;51.460;5.710;2023-03-23T07:25:39;6.93;;;1.73;;
33022;SDS011;19390;51.460;5.710;2023-03-23T07:28:05;7.68;;;1.80;;
33022;SDS011;19390;51.460;5.710;2023-03-23T07:30:31;6.75;;;1.50;;
33022;SDS011;19390;51.460;5.710;2023-03-23T07:32:57;6.03;;;1.77;;
33022;SDS011;19390;51.460;5.710;2023-03-23T07:35:23;9.65;;;1.90;;
33022;SDS011;19390;51.460;5.710;2023-03-23T07:37:49;8.90;;;2.10;;
33022;SDS011;19390;51.460;5.710;2023-03-23T07:40:17;6.90;;;1.80;;
33022;SDS011;19390;51.460;5.710;2023-03-23T07:42:43;5.30;;;1.73;;
33022;SDS011;19390;51.460;5.710;2023-03-23T07:45:14;7.82;;;2.30;;
33022;SDS011;19390;51.460;5.710;2023-03-23T07:47:40;7.35;;;2.10;;
33022;SDS011;19390;51.460;5.710;2023-03-23T07:50:06;6.05;;;1.70;;
33022;SDS011;19390;51.460;5.710;2023-03-23T07:52:33;7.25;;;2.15;;
33022;SDS011;19390;51.460;5.710;2023-03-23T07:55:00;6.88;;;1.80;;
33022;SDS011;19390;51.460;5.710;2023-03-23T07:57:27;5.45;;;2.15;;
33022;SDS011;19390;51.460;5.710;2023-03-23T07:59:53;8.68;;;2.42;;
33022;SDS011;19390;51.460;5.710;2023-03-23T08:02:19;4.97;;;1.60;;
33022;SDS011;19390;51.460;5.710;2023-03-23T08:04:44;7.50;;;2.00;;
33022;SDS011;19390;51.460;5.710;2023-03-23T08:07:12;2.15;;;0.85;;
33022;SDS011;19390;51.460;5.710;2023-03-23T08:09:38;6.00;;;1.33;;
33022;SDS011;19390;51.460;5.710;2023-03-23T08:12:04;4.50;;;1.00;;
33022;SDS011;19390;51.460;5.710;2023-03-23T08:14:30;3.35;;;0.90;;
33022;SDS011;19390;51.460;5.710;2023-03-23T08:16:55;3.70;;;1.30;;
33022;SDS011;19390;51.460;5.710;2023-03-23T08:19:22;2.58;;;0.90;;
33022;SDS011;19390;51.460;5.710;2023-03-23T08:21:47;3.42;;;0.98;;
33022;SDS011;19390;51.460;5.710;2023-03-23T08:24:14;2.58;;;1.30;;
33022;SDS011;19390;51.460;5.710;2023-03-23T08:26:40;3.38;;;1.10;;
33022;SDS011;19390;51.460;5.710;2023-03-23T08:29:06;3.42;;;1.38;;
33022;SDS011;19390;51.460;5.710;2023-03-23T08:31:32;3.35;;;1.10;;
33022;SDS011;19390;51.460;5.710;2023-03-23T08:33:59;3.58;;;0.90;;
33022;SDS011;19390;51.460;5.710;2023-03-23T08:36:25;4.00;;;1.67;;
33022;SDS011;19390;51.460;5.710;2023-03-23T08:38:52;3.00;;;1.10;;
33022;SDS011;19390;51.460;5.710;2023-03-23T08:41:18;2.78;;;1.23;;
33022;SDS011;19390;51.460;5.710;2023-03-23T08:43:44;4.20;;;0.90;;
33022;SDS011;19390;51.460;5.710;2023-03-23T08:46:11;5.90;;;1.25;;
33022;SDS011;19390;51.460;5.710;2023-03-23T08:48:37;2.38;;;0.90;;
33022;SDS011;19390;51.460;5.710;2023-03-23T08:51:04;4.80;;;0.95;;
33022;SDS011;19390;51.460;5.710;2023-03-23T08:53:31;6.90;;;1.00;;
33022;SDS011;19390;51.460;5.710;2023-03-23T08:56:04;4.07;;;0.95;;
33022;SDS011;19390;51.460;5.710;2023-03-23T08:58:31;4.75;;;1.40;;
33022;SDS011;19390;51.460;5.710;2023-03-23T09:00:58;4.95;;;1.15;;
33022;SDS011;19390;51.460;5.710;2023-03-23T09:03:23;3.17;;;0.90;;
33022;SDS011;19390;51.460;5.710;2023-03-23T09:05:49;4.43;;;0.98;;
33022;SDS011;19390;51.460;5.710;2023-03-23T09:08:15;3.03;;;1.10;;
33022;SDS011;19390;51.460;5.710;2023-03-23T09:10:40;4.05;;;1.10;;
33022;SDS011;19390;51.460;5.710;2023-03-23T09:13:06;6.13;;;1.13;;
33022;SDS011;19390;51.460;5.710;2023-03-23T09:15:32;4.20;;;0.90;;
33022;SDS011;19390;51.460;5.710;2023-03-23T09:17:58;7.82;;;1.40;;
33022;SDS011;19390;51.460;5.710;2023-03-23T09:20:24;7.05;;;1.45;;
33022;SDS011;19390;51.460;5.710;2023-03-23T09:22:52;6.13;;;1.60;;
33022;SDS011;19390;51.460;5.710;2023-03-23T09:25:19;2.60;;;1.17;;
33022;SDS011;19390;51.460;5.710;2023-03-23T09:27:51;6.55;;;1.52;;
33022;SDS011;19390;51.460;5.710;2023-03-23T09:30:21;3.72;;;1.50;;
33022;SDS011;19390;51.460;5.710;2023-03-23T09:32:49;4.50;;;1.33;;
33022;SDS011;19390;51.460;5.710;2023-03-23T09:35:15;2.70;;;0.80;;
33022;SDS011;19390;51.460;5.710;2023-03-23T09:37:42;4.53;;;1.00;;
33022;SDS011;19390;51.460;5.710;2023-03-23T09:40:14;6.95;;;1.15;;
33022;SDS011;19390;51.460;5.710;2023-03-23T09:45:39;4.40;;;1.10;;
33022;SDS011;19390;51.460;5.710;2023-03-23T09:50:37;3.67;;;1.30;;
33022;SDS011;19390;51.460;5.710;2023-03-23T09:55:42;5.18;;;1.10;;
33022;SDS011;19390;51.460;5.710;2023-03-23T10:00:57;4.85;;;0.88;;
33022;SDS011;19390;51.460;5.710;2023-03-23T10:03:34;3.92;;;0.80;;
33022;SDS011;19390;51.460;5.710;2023-03-23T10:06:09;3.90;;;0.70;;
33022;SDS011;19390;51.460;5.710;2023-03-23T10:08:39;5.75;;;0.98;;
33022;SDS011;19390;51.460;5.710;2023-03-23T10:17:03;5.07;;;1.45;;
33022;SDS011;19390;51.460;5.710;2023-03-23T10:19:36;3.20;;;0.98;;
33022;SDS011;19390;51.460;5.710;2023-03-23T10:22:10;7.03;;;1.48;;
33022;SDS011;19390;51.460;5.710;2023-03-23T10:24:42;6.13;;;1.40;;
33022;SDS011;19390;51.460;5.710;2023-03-23T10:27:31;4.10;;;1.30;;
33022;SDS011;19390;51.460;5.710;2023-03-23T10:33:18;3.72;;;1.02;;
33022;SDS011;19390;51.460;5.710;2023-03-23T10:35:58;5.43;;;1.35;;
33022;SDS011;19390;51.460;5.710;2023-03-23T10:38:40;6.53;;;1.55;;
33022;SDS011;19390;51.460;5.710;2023-03-23T10:41:17;7.43;;;1.30;;
33022;SDS011;19390;51.460;5.710;2023-03-23T10:43:45;4.78;;;1.60;;
33022;SDS011;19390;51.460;5.710;2023-03-23T10:49:02;5.63;;;1.17;;
33022;SDS011;19390;51.460;5.710;2023-03-23T10:51:35;6.18;;;1.13;;
33022;SDS011;19390;51.460;5.710;2023-03-23T10:54:09;5.22;;;1.33;;
33022;SDS011;19390;51.460;5.710;2023-03-23T10:56:39;4.32;;;1.38;;
33022;SDS011;19390;51.460;5.710;2023-03-23T10:59:49;3.45;;;0.93;;
33022;SDS011;19390;51.460;5.710;2023-03-23T11:02:00;5.38;;;1.15;;
33022;SDS011;19390;51.460;5.710;2023-03-23T11:04:28;4.53;;;1.65;;
33022;SDS011;19390;51.460;5.710;2023-03-23T11:07:00;3.35;;;1.10;;
33022;SDS011;19390;51.460;5.710;2023-03-23T11:09:35;4.50;;;1.40;;
33022;SDS011;19390;51.460;5.710;2023-03-23T11:12:02;4.22;;;1.33;;
33022;SDS011;19390;51.460;5.710;2023-03-23T11:14:30;4.35;;;1.67;;
33022;SDS011;19390;51.460;5.710;2023-03-23T11:16:59;3.33;;;1.15;;
33022;SDS011;19390;51.460;5.710;2023-03-23T11:19:31;2.40;;;1.10;;
33022;SDS011;19390;51.460;5.710;2023-03-23T11:24:33;5.03;;;1.63;;
33022;SDS011;19390;51.460;5.710;2023-03-23T11:27:00;3.50;;;1.13;;
33022;SDS011;19390;51.460;5.710;2023-03-23T11:29:28;4.30;;;1.15;;
33022;SDS011;19390;51.460;5.710;2023-03-23T11:34:31;7.32;;;1.40;;
33022;SDS011;19390;51.460;5.710;2023-03-23T11:37:43;2.15;;;1.13;;
33022;SDS011;19390;51.460;5.710;2023-03-23T11:39:53;3.30;;;1.15;;
33022;SDS011;19390;51.460;5.710;2023-03-23T11:42:24;2.47;;;1.00;;
33022;SDS011;19390;51.460;5.710;2023-03-23T11:50:29;6.13;;;1.20;;
33022;SDS011;19390;51.460;5.710;2023-03-23T11:58:12;2.95;;;0.90;;
33022;SDS011;19390;51.460;5.710;2023-03-23T12:00:42;3.40;;;1.35;;
33022;SDS011;19390;51.460;5.710;2023-03-23T12:03:19;4.30;;;1.40;;
33022;SDS011;19390;51.460;5.710;2023-03-23T12:06:05;4.30;;;1.50;;
33022;SDS011;19390;51.460;5.710;2023-03-23T12:14:03;8.23;;;1.75;;
33022;SDS011;19390;51.460;5.710;2023-03-23T12:16:41;7.75;;;1.67;;
33022;SDS011;19390;51.460;5.710;2023-03-23T12:19:24;5.93;;;1.70;;
33022;SDS011;19390;51.460;5.710;2023-03-23T12:27:25;5.65;;;1.25;;
33022;SDS011;19390;51.460;5.710;2023-03-23T12:35:50;3.97;;;1.50;;
33022;SDS011;19390;51.460;5.710;2023-03-23T12:38:38;6.65;;;1.63;;
33022;SDS011;19390;51.460;5.710;2023-03-23T12:46:18;6.85;;;1.92;;
33022;SDS011;19390;51.460;5.710;2023-03-23T12:48:55;7.43;;;1.85;;
33022;SDS011;19390;51.460;5.710;2023-03-23T12:51:59;5.35;;;1.52;;
33022;SDS011;19390;51.460;5.710;2023-03-23T12:54:33;4.90;;;1.73;;
33022;SDS011;19390;51.460;5.710;2023-03-23T12:57:05;6.72;;;1.80;;
33022;SDS011;19390;51.460;5.710;2023-03-23T12:59:40;3.78;;;1.35;;
33022;SDS011;19390;51.460;5.710;2023-03-23T13:07:30;6.13;;;1.77;;
33022;SDS011;19390;51.460;5.710;2023-03-23T13:12:37;6.03;;;1.50;;
33022;SDS011;19390;51.460;5.710;2023-03-23T13:15:27;4.80;;;1.60;;
33022;SDS011;19390;51.460;5.710;2023-03-23T13:18:13;6.50;;;2.28;;
33022;SDS011;19390;51.460;5.710;2023-03-23T13:21:00;6.65;;;1.90;;
33022;SDS011;19390;51.460;5.710;2023-03-23T13:23:35;8.30;;;2.50;;
33022;SDS011;19390;51.460;5.710;2023-03-23T13:26:14;7.72;;;1.77;;
33022;SDS011;19390;51.460;5.710;2023-03-23T13:28:59;5.88;;;1.80;;
33022;SDS011;19390;51.460;5.710;2023-03-23T13:31:34;9.40;;;1.92;;
33022;SDS011;19390;51.460;5.710;2023-03-23T13:39:50;6.78;;;1.90;;
33022;SDS011;19390;51.460;5.710;2023-03-23T13:42:21;7.20;;;2.15;;
33022;SDS011;19390;51.460;5.710;2023-03-23T13:47:36;8.13;;;2.65;;
33022;SDS011;19390;51.460;5.710;2023-03-23T13:50:12;9.38;;;2.60;;
33022;SDS011;19390;51.460;5.710;2023-03-23T13:52:56;11.88;;;3.58;;
33022;SDS011;19390;51.460;5.710;2023-03-23T13:55:41;10.88;;;4.50;;
33022;SDS011;19390;51.460;5.710;2023-03-23T13:58:20;7.95;;;3.63;;
33022;SDS011;19390;51.460;5.710;2023-03-23T14:00:49;10.77;;;3.85;;
33022;SDS011;19390;51.460;5.710;2023-03-23T14:03:36;8.45;;;3.78;;
33022;SDS011;19390;51.460;5.710;2023-03-23T14:06:16;7.78;;;3.40;;
33022;SDS011;19390;51.460;5.710;2023-03-23T14:08:51;8.23;;;3.38;;
33022;SDS011;19390;51.460;5.710;2023-03-23T14:11:23;6.97;;;2.55;;
33022;SDS011;19390;51.460;5.710;2023-03-23T14:13:58;7.50;;;3.10;;
33022;SDS011;19390;51.460;5.710;2023-03-23T14:16:48;9.00;;;2.88;;
33022;SDS011;19390;51.460;5.710;2023-03-23T14:21:51;9.07;;;2.45;;
33022;SDS011;19390;51.460;5.710;2023-03-23T14:24:21;13.88;;;3.67;;
33022;SDS011;19390;51.460;5.710;2023-03-23T14:29:30;11.38;;;3.00;;
33022;SDS011;19390;51.460;5.710;2023-03-23T14:31:56;4.72;;;2.08;;
33022;SDS011;19390;51.460;5.710;2023-03-23T14:34:24;7.97;;;3.35;;
33022;SDS011;19390;51.460;5.710;2023-03-23T14:36:52;6.32;;;1.80;;
33022;SDS011;19390;51.460;5.710;2023-03-23T14:39:26;7.90;;;1.98;;
33022;SDS011;19390;51.460;5.710;2023-03-23T14:42:00;11.25;;;2.47;;
33022;SDS011;19390;51.460;5.710;2023-03-23T14:44:32;8.15;;;2.22;;
33022;SDS011;19390;51.460;5.710;2023-03-23T14:47:03;5.13;;;1.85;;
33022;SDS011;19390;51.460;5.710;2023-03-23T14:49:35;8.63;;;2.17;;
33022;SDS011;19390;51.460;5.710;2023-03-23T14:52:13;6.80;;;2.50;;
33022;SDS011;19390;51.460;5.710;2023-03-23T14:54:42;9.93;;;2.55;;
33022;SDS011;19390;51.460;5.710;2023-03-23T14:57:16;7.65;;;2.42;;
33022;SDS011;19390;51.460;5.710;2023-03-23T14:59:44;7.20;;;2.25;;
33022;SDS011;19390;51.460;5.710;2023-03-23T15:05:00;9.68;;;2.72;;
33022;SDS011;19390;51.460;5.710;2023-03-23T15:07:32;9.27;;;3.25;;
33022;SDS011;19390;51.460;5.710;2023-03-23T15:10:00;9.98;;;2.97;;
33022;SDS011;19390;51.460;5.710;2023-03-23T15:12:29;8.05;;;3.10;;
33022;SDS011;19390;51.460;5.710;2023-03-23T15:15:05;11.20;;;3.08;;
33022;SDS011;19390;51.460;5.710;2023-03-23T15:17:41;14.05;;;3.60;;
33022;SDS011;19390;51.460;5.710;2023-03-23T15:20:19;9.68;;;3.10;;
33022;SDS011;19390;51.460;5.710;2023-03-23T15:22:48;9.07;;;3.15;;
33022;SDS011;19390;51.460;5.710;2023-03-23T15:25:19;9.55;;;4.07;;
33022;SDS011;19390;51.460;5.710;2023-03-23T15:27:58;11.55;;;3.00;;
33022;SDS011;19390;51.460;5.710;2023-03-23T15:30:49;9.27;;;3.72;;
33022;SDS011;19390;51.460;5.710;2023-03-23T15:33:20;12.57;;;4.55;;
33022;SDS011;19390;51.460;5.710;2023-03-23T15:35:51;9.30;;;3.10;;
33022;SDS011;19390;51.460;5.710;2023-03-23T15:40:58;11.02;;;2.85;;
33022;SDS011;19390;51.460;5.710;2023-03-23T15:48:45;8.88;;;2.55;;
33022;SDS011;19390;51.460;5.710;2023-03-23T15:51:11;12.25;;;3.45;;
33022;SDS011;19390;51.460;5.710;2023-03-23T15:53:38;9.52;;;3.00;;
33022;SDS011;19390;51.460;5.710;2023-03-23T15:56:04;11.23;;;3.40;;
33022;SDS011;19390;51.460;5.710;2023-03-23T15:58:32;7.05;;;2.88;;
33022;SDS011;19390;51.460;5.710;2023-03-23T16:00:59;10.52;;;2.65;;
33022;SDS011;19390;51.460;5.710;2023-03-23T16:03:43;9.27;;;2.83;;
33022;SDS011;19390;51.460;5.710;2023-03-23T16:06:15;8.93;;;3.03;;
33022;SDS011;19390;51.460;5.710;2023-03-23T16:08:43;10.80;;;3.20;;
33022;SDS011;19390;51.460;5.710;2023-03-23T16:11:10;8.10;;;3.13;;
33022;SDS011;19390;51.460;5.710;2023-03-23T16:13:36;10.50;;;4.15;;
33022;SDS011;19390;51.460;5.710;2023-03-23T16:16:02;10.98;;;3.67;;
33022;SDS011;19390;51.460;5.710;2023-03-23T16:18:29;9.55;;;3.10;;
33022;SDS011;19390;51.460;5.710;2023-03-23T16:20:55;6.47;;;3.05;;
33022;SDS011;19390;51.460;5.710;2023-03-23T16:23:21;10.18;;;3.45;;
33022;SDS011;19390;51.460;5.710;2023-03-23T16:25:47;10.73;;;3.30;;
33022;SDS011;19390;51.460;5.710;2023-03-23T16:28:13;8.00;;;2.97;;
33022;SDS011;19390;51.460;5.710;2023-03-23T16:30:40;11.65;;;3.85;;
33022;SDS011;19390;51.460;5.710;2023-03-23T16:33:06;7.97;;;2.85;;
33022;SDS011;19390;51.460;5.710;2023-03-23T16:35:32;11.90;;;3.45;;
33022;SDS011;19390;51.460;5.710;2023-03-23T16:37:58;12.38;;;2.88;;
33022;SDS011;19390;51.460;5.710;2023-03-23T16:40:24;10.45;;;2.80;;
33022;SDS011;19390;51.460;5.710;2023-03-23T16:42:51;9.82;;;2.97;;
33022;SDS011;19390;51.460;5.710;2023-03-23T16:45:17;7.43;;;2.42;;
33022;SDS011;19390;51.460;5.710;2023-03-23T16:47:43;7.88;;;2.78;;